createdAt,value
2023-04-09T00:01:40.286Z,101287.56
2023-04-09T00:04:07.164Z,101290.19
2023-04-09T00:06:33.900Z,101290.00
2023-04-09T00:09:00.804Z,101297.34
2023-04-09T00:11:27.425Z,101284.47
2023-04-09T00:13:54.053Z,101280.09
2023-04-09T00:16:20.788Z,101274.88
2023-04-09T00:18:47.541Z,101260.59
2023-04-09T00:21:16.234Z,101249.06
2023-04-09T00:23:44.185Z,101235.06
2023-04-09T00:26:11.074Z,101234.59
2023-04-09T00:28:37.753Z,101234.09
2023-04-09T00:31:04.496Z,101225.81
2023-04-09T00:33:31.451Z,101234.41
2023-04-09T00:35:58.244Z,101237.50
2023-04-09T00:38:24.957Z,101231.16
2023-04-09T00:40:52.114Z,101224.81
2023-04-09T00:43:18.782Z,101220.75
2023-04-09T00:45:46.163Z,101223.84
2023-04-09T00:48:14.270Z,101227.44
2023-04-09T00:50:42.313Z,101225.31
2023-04-09T00:53:10.753Z,101224.50
2023-04-09T00:55:40.461Z,101219.78
2023-04-09T00:58:07.659Z,101217.84
2023-04-09T01:00:34.808Z,101216.22
2023-04-09T01:03:02.400Z,101218.16
2023-04-09T01:05:41.417Z,101210.22
2023-04-09T01:08:56.062Z,101211.34
2023-04-09T01:11:40.845Z,101205.31
2023-04-09T01:14:30.021Z,101203.69
2023-04-09T01:17:03.530Z,101200.44
2023-04-09T01:19:32.954Z,101197.69
2023-04-09T01:22:00.657Z,101208.72
2023-04-09T01:24:51.954Z,101202.72
2023-04-09T01:27:18.993Z,101197.84
2023-04-09T01:29:47.987Z,101187.44
2023-04-09T01:32:19.225Z,101189.72
2023-04-09T01:34:47.661Z,101190.03
2023-04-09T01:37:16.916Z,101180.13
2023-04-09T01:39:44.226Z,101177.69
2023-04-09T01:42:12.510Z,101169.09
2023-04-09T01:44:41.600Z,101162.75
2023-04-09T01:47:09.710Z,101167.94
2023-04-09T01:49:38.552Z,101166.00
2023-04-09T01:52:05.606Z,101165.19
2023-04-09T01:54:33.072Z,101173.16
2023-04-09T01:56:59.813Z,101167.94
2023-04-09T01:59:26.444Z,101155.78
2023-04-09T02:02:05.316Z,101153.00
2023-04-09T02:04:46.635Z,101147.16
2023-04-09T02:07:28.414Z,101130.59
2023-04-09T02:09:55.973Z,101105.25
2023-04-09T02:12:25.269Z,101116.78
2023-04-09T02:14:54.776Z,101094.69
2023-04-09T02:17:21.649Z,101105.25
2023-04-09T02:19:48.801Z,101106.06
2023-04-09T02:22:16.897Z,101110.78
2023-04-09T02:24:43.974Z,101120.22
2023-04-09T02:27:10.638Z,101126.03
2023-04-09T02:29:37.303Z,101126.38
2023-04-09T02:32:04.090Z,101129.94
2023-04-09T02:34:31.168Z,101134.66
2023-04-09T02:36:57.780Z,101137.44
2023-04-09T02:39:24.450Z,101137.25
2023-04-09T02:41:51.098Z,101137.25
2023-04-09T02:44:17.737Z,101136.44
2023-04-09T02:46:46.484Z,101129.31
2023-04-09T02:49:13.153Z,101138.72
2023-04-09T02:51:39.848Z,101120.50
2023-04-09T02:54:06.606Z,101121.34
2023-04-09T02:56:33.264Z,101126.03
2023-04-09T02:58:59.914Z,101118.38
2023-04-09T03:01:26.596Z,101120.38
2023-04-09T03:03:53.383Z,101110.78
2023-04-09T03:06:20.166Z,101110.78
2023-04-09T03:08:46.799Z,101100.53
2023-04-09T03:11:13.553Z,101092.59
2023-04-09T03:13:40.173Z,101089.00
2023-04-09T03:16:07.343Z,101090.94
2023-04-09T03:18:34.128Z,101077.97
2023-04-09T03:21:05.494Z,101076.03
2023-04-09T03:23:35.010Z,101075.22
2023-04-09T03:26:06.256Z,101060.28
2023-04-09T03:28:33.141Z,101056.72
2023-04-09T03:30:59.793Z,101053.97
2023-04-09T03:33:26.577Z,101060.28
2023-04-09T03:35:53.316Z,101051.19
2023-04-09T03:38:20.164Z,101042.91
2023-04-09T03:40:46.926Z,101042.09
2023-04-09T03:43:13.635Z,101037.41
2023-04-09T03:45:40.365Z,101038.69
2023-04-09T03:48:08.091Z,101036.28
2023-04-09T03:50:41.682Z,101028.00
2023-04-09T03:53:08.395Z,101041.44
2023-04-09T03:55:35.212Z,101042.28
2023-04-09T03:58:01.987Z,101031.22
2023-04-09T04:00:28.810Z,101029.28
2023-04-09T04:02:55.755Z,101015.78
2023-04-09T04:05:26.341Z,101028.00
2023-04-09T04:07:53.772Z,101014.50
2023-04-09T04:10:20.681Z,101028.31
2023-04-09T04:12:47.551Z,101012.91
2023-04-09T04:15:14.449Z,101012.09
2023-04-09T04:17:41.168Z,101003.81
2023-04-09T04:20:08.494Z,100990.66
2023-04-09T04:22:35.836Z,100989.84
2023-04-09T04:25:03.664Z,100981.88
2023-04-09T04:27:30.370Z,100977.97
2023-04-09T04:29:59.005Z,100977.16
2023-04-09T04:32:26.187Z,100970.84
2023-04-09T04:34:52.888Z,100970.34
2023-04-09T04:37:19.690Z,100966.81
2023-04-09T04:39:46.403Z,100975.38
2023-04-09T04:42:13.045Z,100969.06
2023-04-09T04:44:39.632Z,100960.00
2023-04-09T04:47:06.278Z,100938.22
2023-04-09T04:49:32.924Z,100944.91
2023-04-09T04:51:59.547Z,100948.44
2023-04-09T04:54:26.211Z,100944.09
2023-04-09T04:56:52.945Z,100946.34
2023-04-09T04:59:19.567Z,100941.97
2023-04-09T05:01:46.291Z,100944.72
2023-04-09T05:04:12.968Z,100945.03
2023-04-09T05:06:39.790Z,100944.25
2023-04-09T05:09:06.437Z,100944.25
2023-04-09T05:11:33.042Z,100935.97
2023-04-09T05:13:59.736Z,100930.44
2023-04-09T05:16:27.164Z,100923.78
2023-04-09T05:18:54.165Z,100917.78
2023-04-09T05:21:21.115Z,100927.69
2023-04-09T05:23:47.811Z,100924.94
2023-04-09T05:26:14.460Z,100926.06
2023-04-09T05:28:41.515Z,100926.06
2023-04-09T05:31:13.135Z,100939.38
2023-04-09T05:33:40.351Z,100928.34
2023-04-09T05:36:07.879Z,100942.13
2023-04-09T05:38:35.002Z,100930.28
2023-04-09T05:41:01.650Z,100930.75
2023-04-09T05:43:28.300Z,100928.00
2023-04-09T05:45:55.029Z,100934.34
2023-04-09T05:48:23.776Z,100926.06
2023-04-09T05:50:55.181Z,100924.94
2023-04-09T05:53:22.935Z,100935.97
2023-04-09T05:55:49.697Z,100934.00
2023-04-09T05:58:16.636Z,100928.47
2023-04-09T06:00:43.256Z,100938.38
2023-04-09T06:03:10.178Z,100930.94
2023-04-09T06:05:36.944Z,100933.69
2023-04-09T06:08:03.712Z,100934.16
2023-04-09T06:10:32.858Z,100934.97
2023-04-09T06:12:59.517Z,100935.81
2023-04-09T06:15:26.388Z,100948.44
2023-04-09T06:17:53.073Z,100952.50
2023-04-09T06:20:19.827Z,100956.56
2023-04-09T06:22:46.549Z,100954.31
2023-04-09T06:25:13.217Z,100948.91
2023-04-09T06:27:39.875Z,100945.84
2023-04-09T06:30:07.227Z,100934.94
2023-04-09T06:32:43.390Z,100924.88
2023-04-09T06:35:18.862Z,100934.94
2023-04-09T06:37:45.583Z,100940.63
2023-04-09T06:40:12.816Z,100939.97
2023-04-09T06:42:40.455Z,100933.47
2023-04-09T06:45:08.773Z,100920.94
2023-04-09T06:47:36.388Z,100919.47
2023-04-09T06:50:03.715Z,100916.06
2023-04-09T06:52:30.496Z,100915.41
2023-04-09T06:54:57.184Z,100905.97
2023-04-09T06:57:23.940Z,100902.53
2023-04-09T06:59:50.571Z,100905.13
2023-04-09T07:02:17.553Z,100897.34
2023-04-09T07:04:44.434Z,100901.69
2023-04-09T07:07:11.195Z,100900.56
2023-04-09T07:09:37.816Z,100891.94
2023-04-09T07:12:04.513Z,100889.34
2023-04-09T07:14:31.219Z,100885.91
2023-04-09T07:16:57.845Z,100878.91
2023-04-09T07:19:24.520Z,100870.78
2023-04-09T07:21:51.650Z,100867.84
2023-04-09T07:24:18.348Z,100864.38
2023-04-09T07:26:45.080Z,100858.34
2023-04-09T07:29:12.082Z,100852.16
2023-04-09T07:31:38.848Z,100850.00
2023-04-09T07:34:06.422Z,100847.25
2023-04-09T07:36:33.133Z,100845.09
2023-04-09T07:38:59.824Z,100844.09
2023-04-09T07:41:26.523Z,100837.88
2023-04-09T07:43:53.162Z,100835.13
2023-04-09T07:46:21.711Z,100820.94
2023-04-09T07:48:50.068Z,100827.44
2023-04-09T07:51:17.089Z,100832.31
2023-04-09T07:53:43.795Z,100815.84
2023-04-09T07:56:10.495Z,100814.84
2023-04-09T07:58:38.199Z,100824.59
2023-04-09T08:01:05.410Z,100818.75
2023-04-09T08:03:32.542Z,100812.41
2023-04-09T08:05:59.342Z,100806.19
2023-04-09T08:08:26.118Z,100811.06
2023-04-09T08:10:52.788Z,100813.63
2023-04-09T08:13:20.576Z,100813.19
2023-04-09T08:15:47.296Z,100812.44
2023-04-09T08:18:14.309Z,100807.63
2023-04-09T08:20:45.324Z,100814.25
2023-04-09T08:23:12.634Z,100804.59
2023-04-09T08:25:41.038Z,100812.22
2023-04-09T08:28:08.420Z,100811.06
2023-04-09T08:30:35.147Z,100818.56
2023-04-09T08:33:02.625Z,100801.97
2023-04-09T08:35:32.616Z,100789.16
2023-04-09T08:37:59.968Z,100780.16
2023-04-09T08:40:26.636Z,100774.53
2023-04-09T08:42:59.510Z,100783.19
2023-04-09T08:45:26.236Z,100797.75
2023-04-09T08:47:53.226Z,100807.56
2023-04-09T08:50:20.220Z,100796.16
2023-04-09T08:52:50.416Z,100805.97
2023-04-09T08:55:17.263Z,100792.81
2023-04-09T08:57:43.979Z,100793.16
2023-04-09T09:00:11.381Z,100787.16
2023-04-09T09:02:40.176Z,100785.19
2023-04-09T09:05:07.435Z,100779.03
2023-04-09T09:07:34.408Z,100774.13
2023-04-09T09:10:04.962Z,100772.41
2023-04-09T09:12:38.677Z,100779.84
2023-04-09T09:15:24.376Z,100773.31
2023-04-09T09:17:58.863Z,100771.78
2023-04-09T09:20:27.216Z,100770.44
2023-04-09T09:22:55.911Z,100762.75
2023-04-09T09:25:24.849Z,100757.25
2023-04-09T09:27:52.163Z,100750.34
2023-04-09T09:30:27.517Z,100745.53
2023-04-09T09:33:04.533Z,100739.63
2023-04-09T09:35:31.250Z,100729.66
2023-04-09T09:38:03.295Z,100733.63
2023-04-09T09:40:30.183Z,100724.75
2023-04-09T09:42:57.960Z,100718.28
2023-04-09T09:45:26.174Z,100724.91
2023-04-09T09:47:54.213Z,100724.34
2023-04-09T09:50:25.281Z,100717.09
2023-04-09T09:53:04.750Z,100725.69
2023-04-09T09:55:33.348Z,100720.84
2023-04-09T09:58:04.065Z,100717.72
2023-04-09T10:00:33.104Z,100706.28
2023-04-09T10:03:08.525Z,100711.28
2023-04-09T10:05:36.972Z,100704.03
2023-04-09T10:08:04.607Z,100712.25
2023-04-09T10:10:31.802Z,100713.31
2023-04-09T10:12:59.367Z,100707.09
2023-04-09T10:15:29.060Z,100698.31
2023-04-09T10:17:56.783Z,100701.34
2023-04-09T10:20:29.159Z,100691.28
2023-04-09T10:22:57.373Z,100700.31
2023-04-09T10:25:24.185Z,100699.41
2023-04-09T10:28:02.708Z,100687.41
2023-04-09T10:30:36.699Z,100680.63
2023-04-09T10:33:29.682Z,100681.19
2023-04-09T10:36:01.619Z,100669.22
2023-04-09T10:38:35.939Z,100675.91
2023-04-09T10:41:16.010Z,100663.56
2023-04-09T10:43:43.648Z,100654.88
2023-04-09T10:46:46.223Z,100669.56
2023-04-09T10:49:16.385Z,100643.00
2023-04-09T10:52:03.356Z,100652.94
2023-04-09T10:54:33.312Z,100647.81
2023-04-09T10:57:10.877Z,100618.16
2023-04-09T10:59:42.380Z,100629.34
2023-04-09T11:02:29.714Z,100628.19
2023-04-09T11:05:02.582Z,100614.78
2023-04-09T11:07:32.527Z,100621.47
2023-04-09T11:09:59.157Z,100601.38
2023-04-09T11:12:25.871Z,100603.78
2023-04-09T11:14:52.527Z,100607.34
2023-04-09T11:17:19.935Z,100612.56
2023-04-09T11:19:47.088Z,100619.38
2023-04-09T11:22:13.755Z,100612.19
2023-04-09T11:24:44.544Z,100611.50
2023-04-09T11:27:11.196Z,100624.41
2023-04-09T11:29:37.856Z,100615.56
2023-04-09T11:32:05.348Z,100612.75
2023-04-09T11:34:32.697Z,100616.13
2023-04-09T11:37:02.191Z,100606.72
2023-04-09T11:39:31.077Z,100614.00
2023-04-09T11:41:57.957Z,100618.03
2023-04-09T11:44:24.596Z,100608.09
2023-04-09T11:46:52.106Z,100608.91
2023-04-09T11:49:18.880Z,100615.25
2023-04-09T11:51:45.703Z,100620.72
2023-04-09T11:54:12.469Z,100622.66
2023-04-09T11:56:39.142Z,100614.34
2023-04-09T11:59:05.950Z,100614.72
2023-04-09T12:01:33.586Z,100619.09
2023-04-09T12:04:01.452Z,100620.28
2023-04-09T12:06:28.691Z,100610.75
2023-04-09T12:08:58.990Z,100604.88
2023-04-09T12:11:29.984Z,100613.91
2023-04-09T12:14:01.333Z,100591.63
2023-04-09T12:16:31.192Z,100583.56
2023-04-09T12:19:02.798Z,100575.94
2023-04-09T12:21:56.186Z,100573.19
2023-04-09T12:24:28.072Z,100571.31
2023-04-09T12:26:56.544Z,100582.75
2023-04-09T12:29:23.469Z,100568.81
2023-04-09T12:31:50.244Z,100567.19
2023-04-09T12:34:17.191Z,100563.69
2023-04-09T12:36:43.884Z,100569.69
2023-04-09T12:39:10.720Z,100557.88
2023-04-09T12:41:37.833Z,100548.03
2023-04-09T12:44:05.260Z,100538.63
2023-04-09T12:46:32.792Z,100537.47
2023-04-09T12:48:59.600Z,100538.72
2023-04-09T12:51:26.331Z,100519.75
2023-04-09T12:53:54.443Z,100514.28
2023-04-09T12:56:21.378Z,100519.13
2023-04-09T12:58:48.089Z,100512.84
2023-04-09T13:01:14.841Z,100512.13
2023-04-09T13:03:41.923Z,100512.19
2023-04-09T13:06:08.855Z,100504.25
2023-04-09T13:08:35.926Z,100501.09
2023-04-09T13:11:02.926Z,100507.44
2023-04-09T13:13:29.837Z,100503.53
2023-04-09T13:15:56.498Z,100499.13
2023-04-09T13:18:23.183Z,100509.06
2023-04-09T13:20:49.853Z,100489.66
2023-04-09T13:23:16.512Z,100509.06
2023-04-09T13:25:43.525Z,100499.56
2023-04-09T13:28:10.237Z,100487.75
2023-04-09T13:30:36.949Z,100479.84
2023-04-09T13:33:06.736Z,100469.56
2023-04-09T13:35:33.493Z,100459.97
2023-04-09T13:38:01.296Z,100448.72
2023-04-09T13:40:27.973Z,100458.94
2023-04-09T13:42:56.142Z,100454.91
2023-04-09T13:45:24.018Z,100449.38
2023-04-09T13:47:51.162Z,100458.88
2023-04-09T13:50:18.073Z,100461.19
2023-04-09T13:52:46.992Z,100462.72
2023-04-09T13:55:14.148Z,100467.47
2023-04-09T13:57:41.111Z,100476.59
2023-04-09T14:00:08.554Z,100467.47
2023-04-09T14:02:35.394Z,100444.47
2023-04-09T14:05:04.061Z,100419.06
2023-04-09T14:07:32.179Z,100387.28
2023-04-09T14:09:58.822Z,100381.69
2023-04-09T14:12:25.799Z,100376.84
2023-04-09T14:14:52.419Z,100398.22
2023-04-09T14:17:19.093Z,100401.38
2023-04-09T14:19:45.795Z,100420.41
2023-04-09T14:22:12.653Z,100440.38
2023-04-09T14:24:40.265Z,100430.16
2023-04-09T14:27:07.828Z,100423.16
2023-04-09T14:29:34.834Z,100419.38
2023-04-09T14:32:01.552Z,100402.88
2023-04-09T14:34:31.522Z,100411.78
2023-04-09T14:36:58.266Z,100409.66
2023-04-09T14:39:25.143Z,100400.38
2023-04-09T14:41:52.361Z,100405.34
2023-04-09T14:44:19.024Z,100395.16
2023-04-09T14:46:45.840Z,100392.06
2023-04-09T14:49:13.215Z,100383.50
2023-04-09T14:51:39.968Z,100367.75
2023-04-09T14:54:06.814Z,100385.81
2023-04-09T14:56:33.529Z,100390.28
2023-04-09T14:59:00.123Z,100374.41
2023-04-09T15:01:28.212Z,100373.50
2023-04-09T15:03:55.612Z,100375.00
2023-04-09T15:06:22.700Z,100378.88
2023-04-09T15:08:49.326Z,100382.84
2023-04-09T15:11:17.218Z,100370.94
2023-04-09T15:13:44.070Z,100370.84
2023-04-09T15:16:11.553Z,100361.22
2023-04-09T15:18:38.375Z,100350.91
2023-04-09T15:21:05.534Z,100345.50
2023-04-09T15:23:32.245Z,100333.31
2023-04-09T15:25:59.100Z,100330.69
2023-04-09T15:28:25.784Z,100329.22
2023-04-09T15:30:54.668Z,100336.03
2023-04-09T15:33:24.224Z,100340.19
2023-04-09T15:35:51.000Z,100335.88
2023-04-09T15:38:21.467Z,100343.44
2023-04-09T15:40:48.114Z,100334.16
2023-04-09T15:43:15.830Z,100320.09
2023-04-09T15:45:42.666Z,100330.31
2023-04-09T15:48:10.405Z,100327.38
2023-04-09T15:50:37.076Z,100318.56
2023-04-09T15:53:03.764Z,100295.34
2023-04-09T15:55:30.840Z,100288.88
2023-04-09T15:57:57.585Z,100290.34
2023-04-09T16:00:24.388Z,100279.22
2023-04-09T16:02:53.132Z,100281.66
2023-04-09T16:05:19.829Z,100262.69
2023-04-09T16:07:47.325Z,100243.75
2023-04-09T16:10:15.051Z,100247.78
2023-04-09T16:12:45.555Z,100255.34
2023-04-09T16:15:12.209Z,100249.00
2023-04-09T16:17:40.804Z,100250.97
2023-04-09T16:20:08.876Z,100265.22
2023-04-09T16:22:35.884Z,100265.97
2023-04-09T16:25:02.562Z,100257.50
2023-04-09T16:27:30.948Z,100245.47
2023-04-09T16:29:58.642Z,100254.19
2023-04-09T16:32:25.460Z,100245.47
2023-04-09T16:34:52.876Z,100230.78
2023-04-09T16:37:19.744Z,100211.78
2023-04-09T16:39:46.406Z,100215.72
2023-04-09T16:42:13.101Z,100209.75
2023-04-09T16:44:40.284Z,100201.00
2023-04-09T16:47:08.282Z,100207.66
2023-04-09T16:49:35.041Z,100211.63
2023-04-09T16:52:02.092Z,100209.56
2023-04-09T16:54:29.564Z,100211.88
2023-04-09T16:56:58.558Z,100219.78
2023-04-09T16:59:25.412Z,100220.09
2023-04-09T17:01:52.300Z,100212.09
2023-04-09T17:04:19.716Z,100220.38
2023-04-09T17:06:47.236Z,100221.91
2023-04-09T17:09:14.026Z,100221.56
2023-04-09T17:11:40.754Z,100220.31
2023-04-09T17:14:07.428Z,100207.19
2023-04-09T17:16:34.555Z,100212.22
2023-04-09T17:19:01.721Z,100201.50
2023-04-09T17:21:28.330Z,100196.69
2023-04-09T17:23:54.963Z,100201.06
2023-04-09T17:26:21.586Z,100197.50
2023-04-09T17:28:48.185Z,100199.91
2023-04-09T17:31:16.128Z,100191.94
2023-04-09T17:33:48.028Z,100203.06
2023-04-09T17:36:17.367Z,100190.34
2023-04-09T17:38:44.088Z,100180.84
2023-04-09T17:41:10.824Z,100178.81
2023-04-09T17:43:37.732Z,100170.41
2023-04-09T17:46:07.446Z,100157.28
2023-04-09T17:48:36.517Z,100147.28
2023-04-09T17:51:03.197Z,100147.28
2023-04-09T17:53:29.858Z,100151.22
2023-04-09T17:55:56.600Z,100155.19
2023-04-09T17:58:24.916Z,100152.41
2023-04-09T18:00:53.404Z,100147.59
2023-04-09T18:03:20.418Z,100147.19
2023-04-09T18:05:47.735Z,100150.31
2023-04-09T18:08:14.425Z,100142.78
2023-04-09T18:10:41.230Z,100149.50
2023-04-09T18:13:07.985Z,100145.56
2023-04-09T18:15:34.658Z,100130.88
2023-04-09T18:18:01.391Z,100131.25
2023-04-09T18:20:28.309Z,100133.59
2023-04-09T18:22:55.762Z,100141.47
2023-04-09T18:25:23.352Z,100123.59
2023-04-09T18:27:50.568Z,100119.25
2023-04-09T18:30:17.421Z,100111.28
2023-04-09T18:32:44.432Z,100112.00
2023-04-09T18:35:11.179Z,100117.56
2023-04-09T18:37:38.347Z,100107.66
2023-04-09T18:40:06.897Z,100115.97
2023-04-09T18:42:33.501Z,100115.97
2023-04-09T18:45:00.158Z,100119.06
2023-04-09T18:47:27.006Z,100113.84
2023-04-09T18:49:54.309Z,100107.06
2023-04-09T18:52:21.099Z,100107.47
2023-04-09T18:54:48.418Z,100111.00
2023-04-09T18:57:15.534Z,100104.59
2023-04-09T18:59:45.436Z,100093.91
2023-04-09T19:02:12.251Z,100097.03
2023-04-09T19:04:40.155Z,100098.97
2023-04-09T19:07:07.170Z,100094.94
2023-04-09T19:09:34.685Z,100088.16
2023-04-09T19:12:02.083Z,100087.38
2023-04-09T19:14:28.812Z,100086.94
2023-04-09T19:16:55.922Z,100079.81
2023-04-09T19:19:23.592Z,100075.03
2023-04-09T19:21:50.673Z,100077.78
2023-04-09T19:24:17.332Z,100074.53
2023-04-09T19:26:43.963Z,100063.44
2023-04-09T19:29:10.858Z,100060.63
2023-04-09T19:31:41.517Z,100059.41
2023-04-09T19:34:08.244Z,100050.63
2023-04-09T19:36:35.088Z,100050.19
2023-04-09T19:39:01.774Z,100048.63
2023-04-09T19:41:28.539Z,100037.53
2023-04-09T19:43:55.304Z,100022.06
2023-04-09T19:46:22.012Z,100021.63
2023-04-09T19:48:48.696Z,100021.63
2023-04-09T19:51:20.080Z,100015.66
2023-04-09T19:53:48.014Z,100023.16
2023-04-09T19:56:15.138Z,100011.28
2023-04-09T19:58:43.679Z,100014.06
2023-04-09T20:01:10.708Z,100016.00
2023-04-09T20:03:37.561Z,100008.09
2023-04-09T20:06:09.939Z,100017.13
2023-04-09T20:08:37.849Z,100003.28
2023-04-09T20:11:05.127Z,100001.66
2023-04-09T20:13:31.911Z,99997.66
2023-04-09T20:15:58.603Z,100003.19
2023-04-09T20:18:25.444Z,99997.56
2023-04-09T20:20:53.092Z,99997.56
2023-04-09T20:23:19.845Z,100006.66
2023-04-09T20:25:46.713Z,100003.88
2023-04-09T20:28:13.398Z,99999.50
2023-04-09T20:30:40.096Z,99999.06
2023-04-09T20:33:07.067Z,100004.19
2023-04-09T20:35:36.271Z,99997.84
2023-04-09T20:38:03.179Z,99999.78
2023-04-09T20:40:32.020Z,99996.22
2023-04-09T20:42:59.357Z,100000.53
2023-04-09T20:45:26.250Z,99993.38
2023-04-09T20:47:53.434Z,99977.56
2023-04-09T20:50:20.102Z,99969.19
2023-04-09T20:52:47.583Z,99963.19
2023-04-09T20:55:15.008Z,99951.34
2023-04-09T20:57:41.679Z,99960.00
2023-04-09T21:00:08.999Z,99948.94
2023-04-09T21:02:35.931Z,99952.84
2023-04-09T21:05:11.836Z,99949.66
2023-04-09T21:07:46.302Z,99941.72
2023-04-09T21:10:13.332Z,99931.81
2023-04-09T21:12:40.389Z,99925.47
2023-04-09T21:15:07.707Z,99925.84
2023-04-09T21:17:34.517Z,99918.69
2023-04-09T21:20:01.342Z,99911.13
2023-04-09T21:22:28.062Z,99925.75
2023-04-09T21:24:56.506Z,99910.69
2023-04-09T21:27:24.318Z,99908.28
2023-04-09T21:29:51.038Z,99890.03
2023-04-09T21:32:17.886Z,99880.84
2023-04-09T21:34:45.497Z,99892.22
2023-04-09T21:37:12.360Z,99877.94
2023-04-09T21:39:39.067Z,99873.94
2023-04-09T21:42:08.840Z,99877.44
2023-04-09T21:44:35.632Z,99861.56
2023-04-09T21:47:07.500Z,99872.22
2023-04-09T21:49:39.066Z,99856.34
2023-04-09T21:52:09.074Z,99853.13
2023-04-09T21:54:36.116Z,99841.63
2023-04-09T21:57:02.895Z,99848.34
2023-04-09T21:59:29.500Z,99838.41
2023-04-09T22:01:56.429Z,99843.94
2023-04-09T22:04:23.167Z,99849.06
2023-04-09T22:06:50.385Z,99845.06
2023-04-09T22:09:17.106Z,99832.75
2023-04-09T22:11:43.875Z,99814.53
2023-04-09T22:14:11.330Z,99817.69
2023-04-09T22:16:38.156Z,99821.59
2023-04-09T22:19:04.900Z,99814.84
2023-04-09T22:21:31.705Z,99802.16
2023-04-09T22:23:58.420Z,99805.69
2023-04-09T22:26:25.134Z,99804.47
2023-04-09T22:28:52.481Z,99788.63
2023-04-09T22:31:20.031Z,99786.25
2023-04-09T22:33:46.962Z,99781.88
2023-04-09T22:36:13.719Z,99785.44
2023-04-09T22:38:40.475Z,99783.06
2023-04-09T22:41:07.185Z,99778.31
2023-04-09T22:43:33.908Z,99766.47
2023-04-09T22:46:01.565Z,99759.75
2023-04-09T22:48:29.193Z,99775.97
2023-04-09T22:50:57.782Z,99772.41
2023-04-09T22:53:24.487Z,99764.91
2023-04-09T22:55:51.682Z,99772.03
2023-04-09T22:58:19.198Z,99770.88
2023-04-09T23:00:47.239Z,99775.25
2023-04-09T23:03:14.341Z,99771.31
2023-04-09T23:05:41.932Z,99777.66
2023-04-09T23:08:09.485Z,99777.25
2023-04-09T23:10:36.306Z,99773.75
2023-04-09T23:13:02.982Z,99771.81
2023-04-09T23:15:29.731Z,99766.69
2023-04-09T23:17:56.761Z,99771.06
2023-04-09T23:20:23.740Z,99763.56
2023-04-09T23:22:50.644Z,99769.53
2023-04-09T23:25:17.658Z,99776.31
2023-04-09T23:27:44.578Z,99770.75
2023-04-09T23:30:16.610Z,99781.84
2023-04-09T23:32:44.590Z,99792.91
2023-04-09T23:35:11.648Z,99801.94
2023-04-09T23:37:42.660Z,99789.63
2023-04-09T23:40:11.184Z,99799.91
2023-04-09T23:42:38.049Z,99800.72
2023-04-09T23:45:06.092Z,99796.34
2023-04-09T23:47:34.781Z,99807.44
2023-04-09T23:50:05.756Z,99814.13
2023-04-09T23:52:37.764Z,99800.66
2023-04-09T23:55:07.478Z,99808.50
2023-04-09T23:57:35.367Z,99810.84
